createdAt,value
2023-03-18T00:00:49.756Z,96715.56
2023-03-18T00:03:16.417Z,96716.50
2023-03-18T00:05:43.043Z,96713.19
2023-03-18T00:08:09.710Z,96708.06
2023-03-18T00:10:36.421Z,96712.34
2023-03-18T00:13:04.503Z,96721.97
2023-03-18T00:15:31.216Z,96719.78
2023-03-18T00:17:59.809Z,96725.34
2023-03-18T00:20:38.448Z,96735.09
2023-03-18T00:23:08.577Z,96738.84
2023-03-18T00:25:35.333Z,96746.78
2023-03-18T00:28:02.774Z,96751.25
2023-03-18T00:30:29.374Z,96753.00
2023-03-18T00:32:57.720Z,96747.16
2023-03-18T00:35:27.874Z,96745.41
2023-03-18T00:37:55.408Z,96738.75
2023-03-18T00:40:27.520Z,96734.50
2023-03-18T00:43:01.606Z,96743.78
2023-03-18T00:45:28.242Z,96737.03
2023-03-18T00:47:54.855Z,96746.56
2023-03-18T00:50:21.377Z,96744.94
2023-03-18T00:52:47.935Z,96757.34
2023-03-18T00:55:14.469Z,96754.84
2023-03-18T00:57:41.446Z,96752.72
2023-03-18T01:00:09.739Z,96759.69
2023-03-18T01:02:36.435Z,96753.53
2023-03-18T01:05:03.928Z,96759.53
2023-03-18T01:07:30.556Z,96753.53
2023-03-18T01:09:57.046Z,96751.09
2023-03-18T01:12:24.116Z,96746.59
2023-03-18T01:14:50.687Z,96753.63
2023-03-18T01:17:17.206Z,96750.50
2023-03-18T01:19:43.713Z,96747.25
2023-03-18T01:22:10.418Z,96765.75
2023-03-18T01:24:36.987Z,96762.50
2023-03-18T01:27:03.842Z,96760.88
2023-03-18T01:29:30.945Z,96756.84
2023-03-18T01:31:57.540Z,96756.91
2023-03-18T01:34:25.020Z,96757.69
2023-03-18T01:36:52.116Z,96754.19
2023-03-18T01:39:18.707Z,96755.69
2023-03-18T01:41:46.116Z,96750.03
2023-03-18T01:44:15.765Z,96753.53
2023-03-18T01:46:46.977Z,96743.38
2023-03-18T01:49:27.415Z,96753.91
2023-03-18T01:52:08.374Z,96747.00
2023-03-18T01:54:40.147Z,96751.06
2023-03-18T01:57:07.529Z,96763.25
2023-03-18T01:59:38.497Z,96764.22
2023-03-18T02:02:10.967Z,96761.09
2023-03-18T02:04:48.217Z,96777.88
2023-03-18T02:07:21.265Z,96766.06
2023-03-18T02:09:50.642Z,96776.72
2023-03-18T02:12:23.463Z,96773.25
2023-03-18T02:14:51.814Z,96774.94
2023-03-18T02:17:23.719Z,96777.69
2023-03-18T02:20:17.042Z,96776.19
2023-03-18T02:22:50.554Z,96780.66
2023-03-18T02:25:20.081Z,96775.53
2023-03-18T02:27:51.176Z,96787.69
2023-03-18T02:30:28.799Z,96786.03
2023-03-18T02:32:57.721Z,96783.59
2023-03-18T02:35:25.384Z,96787.22
2023-03-18T02:37:51.982Z,96797.66
2023-03-18T02:40:25.872Z,96791.59
2023-03-18T02:42:52.537Z,96790.50
2023-03-18T02:45:45.064Z,96792.13
2023-03-18T02:48:17.756Z,96795.69
2023-03-18T02:50:45.578Z,96794.94
2023-03-18T02:53:13.502Z,96801.03
2023-03-18T02:55:40.608Z,96801.16
2023-03-18T02:58:07.943Z,96802.09
2023-03-18T03:00:34.935Z,96800.47
2023-03-18T03:03:01.910Z,96806.81
2023-03-18T03:05:28.506Z,96811.25
2023-03-18T03:07:55.149Z,96806.91
2023-03-18T03:10:21.658Z,96814.47
2023-03-18T03:12:48.246Z,96819.66
2023-03-18T03:15:14.946Z,96818.81
2023-03-18T03:17:42.013Z,96815.47
2023-03-18T03:20:09.735Z,96818.13
2023-03-18T03:22:37.146Z,96825.81
2023-03-18T03:25:04.254Z,96825.06
2023-03-18T03:27:31.126Z,96829.69
2023-03-18T03:29:57.666Z,96829.84
2023-03-18T03:32:24.302Z,96831.72
2023-03-18T03:34:51.179Z,96829.97
2023-03-18T03:37:17.988Z,96836.09
2023-03-18T03:39:45.382Z,96840.38
2023-03-18T03:42:11.916Z,96837.84
2023-03-18T03:44:38.436Z,96841.34
2023-03-18T03:47:05.094Z,96841.47
2023-03-18T03:49:32.104Z,96852.72
2023-03-18T03:51:58.812Z,96856.91
2023-03-18T03:54:25.761Z,96851.72
2023-03-18T03:56:53.166Z,96856.97
2023-03-18T03:59:19.772Z,96865.56
2023-03-18T04:01:46.407Z,96865.75
2023-03-18T04:04:13.311Z,96866.75
2023-03-18T04:06:39.967Z,96865.00
2023-03-18T04:09:06.490Z,96879.56
2023-03-18T04:11:32.990Z,96871.94
2023-03-18T04:13:59.469Z,96872.84
2023-03-18T04:16:26.588Z,96877.84
2023-03-18T04:18:53.099Z,96876.13
2023-03-18T04:21:19.652Z,96871.72
2023-03-18T04:23:46.501Z,96876.22
2023-03-18T04:26:13.259Z,96880.69
2023-03-18T04:28:40.458Z,96880.69
2023-03-18T04:31:07.554Z,96886.88
2023-03-18T04:33:34.309Z,96892.84
2023-03-18T04:36:00.945Z,96888.47
2023-03-18T04:38:28.477Z,96885.00
2023-03-18T04:40:55.032Z,96886.66
2023-03-18T04:43:22.335Z,96887.50
2023-03-18T04:45:49.142Z,96889.34
2023-03-18T04:48:15.665Z,96894.53
2023-03-18T04:50:42.138Z,96890.25
2023-03-18T04:53:09.002Z,96897.19
2023-03-18T04:55:35.570Z,96894.66
2023-03-18T04:58:02.431Z,96890.19
2023-03-18T05:00:29.159Z,96891.78
2023-03-18T05:02:55.666Z,96893.47
2023-03-18T05:05:22.440Z,96893.38
2023-03-18T05:07:49.027Z,96898.56
2023-03-18T05:10:15.977Z,96896.69
2023-03-18T05:12:43.510Z,96904.41
2023-03-18T05:15:12.137Z,96901.88
2023-03-18T05:17:40.058Z,96902.78
2023-03-18T05:20:07.351Z,96906.19
2023-03-18T05:22:34.315Z,96896.63
2023-03-18T05:25:01.738Z,96904.59
2023-03-18T05:27:29.757Z,96894.03
2023-03-18T05:29:56.977Z,96907.94
2023-03-18T05:32:24.044Z,96905.03
2023-03-18T05:34:50.755Z,96901.63
2023-03-18T05:37:17.335Z,96903.44
2023-03-18T05:39:45.039Z,96906.81
2023-03-18T05:42:12.581Z,96908.34
2023-03-18T05:44:40.379Z,96909.66
2023-03-18T05:47:07.392Z,96906.53
2023-03-18T05:49:33.774Z,96904.91
2023-03-18T05:52:01.263Z,96906.75
2023-03-18T05:54:28.306Z,96906.91
2023-03-18T05:56:54.818Z,96901.06
2023-03-18T05:59:23.734Z,96910.06
2023-03-18T06:01:50.242Z,96907.09
2023-03-18T06:04:19.154Z,96904.22
2023-03-18T06:06:46.671Z,96904.75
2023-03-18T06:09:13.514Z,96907.75
2023-03-18T06:11:44.558Z,96907.00
2023-03-18T06:14:11.458Z,96912.34
2023-03-18T06:16:38.769Z,96912.53
2023-03-18T06:19:05.679Z,96916.59
2023-03-18T06:21:33.201Z,96914.88
2023-03-18T06:24:01.572Z,96911.63
2023-03-18T06:26:28.182Z,96911.22
2023-03-18T06:28:54.695Z,96911.13
2023-03-18T06:31:22.480Z,96925.94
2023-03-18T06:33:49.135Z,96918.25
2023-03-18T06:36:16.955Z,96916.03
2023-03-18T06:38:44.875Z,96917.41
2023-03-18T06:41:12.200Z,96917.25
2023-03-18T06:43:39.170Z,96920.25
2023-03-18T06:46:05.826Z,96915.66
2023-03-18T06:48:32.971Z,96917.19
2023-03-18T06:50:59.584Z,96921.75
2023-03-18T06:53:27.489Z,96924.50
2023-03-18T06:55:54.144Z,96922.72
2023-03-18T06:58:20.633Z,96929.19
2023-03-18T07:00:47.586Z,96915.69
2023-03-18T07:03:16.021Z,96921.38
2023-03-18T07:05:42.567Z,96923.03
2023-03-18T07:08:09.893Z,96924.81
2023-03-18T07:10:36.412Z,96928.88
2023-03-18T07:13:02.977Z,96924.44
2023-03-18T07:15:30.418Z,96925.88
2023-03-18T07:17:57.057Z,96930.84
2023-03-18T07:20:24.068Z,96927.59
2023-03-18T07:22:51.504Z,96925.41
2023-03-18T07:25:18.216Z,96934.34
2023-03-18T07:27:45.596Z,96932.84
2023-03-18T07:30:13.656Z,96931.13
2023-03-18T07:32:40.381Z,96935.00
2023-03-18T07:35:07.699Z,96926.63
2023-03-18T07:37:35.959Z,96920.97
2023-03-18T07:40:02.653Z,96930.41
2023-03-18T07:42:29.197Z,96928.88
2023-03-18T07:44:56.264Z,96924.59
2023-03-18T07:47:24.928Z,96925.56
2023-03-18T07:49:54.012Z,96926.16
2023-03-18T07:52:20.580Z,96923.97
2023-03-18T07:54:47.261Z,96922.50
2023-03-18T07:57:13.901Z,96914.50
2023-03-18T07:59:40.538Z,96917.31
2023-03-18T08:02:08.802Z,96914.53
2023-03-18T08:04:35.620Z,96916.69
2023-03-18T08:07:03.178Z,96923.25
2023-03-18T08:09:29.727Z,96923.13
2023-03-18T08:11:56.254Z,96918.00
2023-03-18T08:14:22.755Z,96918.44
2023-03-18T08:16:49.687Z,96927.88
2023-03-18T08:19:16.272Z,96924.06
2023-03-18T08:21:43.583Z,96928.88
2023-03-18T08:24:11.037Z,96933.91
2023-03-18T08:26:37.601Z,96928.34
2023-03-18T08:29:04.187Z,96933.84
2023-03-18T08:31:31.047Z,96928.63
2023-03-18T08:33:59.462Z,96932.03
2023-03-18T08:36:27.595Z,96933.44
2023-03-18T08:38:54.577Z,96928.69
2023-03-18T08:41:21.687Z,96927.34
2023-03-18T08:43:48.227Z,96914.28
2023-03-18T08:46:14.982Z,96926.19
2023-03-18T08:48:41.830Z,96923.50
2023-03-18T08:51:08.433Z,96924.22
2023-03-18T08:53:35.839Z,96935.41
2023-03-18T08:56:03.335Z,96928.53
2023-03-18T08:58:30.273Z,96927.63
2023-03-18T09:00:56.940Z,96924.28
2023-03-18T09:03:26.534Z,96924.84
2023-03-18T09:05:53.505Z,96919.47
2023-03-18T09:08:20.038Z,96917.34
2023-03-18T09:10:46.636Z,96919.88
2023-03-18T09:13:13.192Z,96921.31
2023-03-18T09:15:40.993Z,96916.13
2023-03-18T09:18:12.096Z,96907.31
2023-03-18T09:20:40.315Z,96907.19
2023-03-18T09:23:08.233Z,96910.06
2023-03-18T09:25:35.242Z,96909.03
2023-03-18T09:28:02.371Z,96906.72
2023-03-18T09:30:29.029Z,96905.56
2023-03-18T09:32:56.624Z,96910.72
2023-03-18T09:35:24.224Z,96908.28
2023-03-18T09:37:51.961Z,96907.44
2023-03-18T09:40:33.552Z,96900.53
2023-03-18T09:43:29.433Z,96903.09
2023-03-18T09:46:06.975Z,96898.59
2023-03-18T09:48:53.367Z,96894.59
2023-03-18T09:51:47.224Z,96890.66
2023-03-18T09:54:44.660Z,96890.19
2023-03-18T09:57:42.716Z,96883.31
2023-03-18T10:00:36.389Z,96879.00
2023-03-18T10:03:06.668Z,96882.22
2023-03-18T10:05:50.458Z,96879.66
2023-03-18T10:08:23.842Z,96874.69
2023-03-18T10:10:50.472Z,96880.09
2023-03-18T10:13:25.553Z,96880.19
2023-03-18T10:15:58.368Z,96878.78
2023-03-18T10:18:32.308Z,96881.22
2023-03-18T10:21:11.426Z,96875.13
2023-03-18T10:24:16.917Z,96872.41
2023-03-18T10:26:57.668Z,96874.13
2023-03-18T10:29:34.046Z,96866.81
2023-03-18T10:32:14.858Z,96862.38
2023-03-18T10:34:59.746Z,96856.56
2023-03-18T10:38:04.512Z,96863.50
2023-03-18T10:40:41.402Z,96857.91
2023-03-18T10:43:17.213Z,96857.53
2023-03-18T10:45:46.925Z,96852.69
2023-03-18T10:48:38.276Z,96850.03
2023-03-18T10:51:10.737Z,96852.53
2023-03-18T10:53:46.684Z,96848.88
2023-03-18T10:56:14.649Z,96856.28
2023-03-18T10:58:42.890Z,96855.13
2023-03-18T11:01:17.166Z,96844.59
2023-03-18T11:03:51.814Z,96843.38
2023-03-18T11:06:27.928Z,96845.50
2023-03-18T11:09:12.961Z,96843.56
2023-03-18T11:11:42.859Z,96849.19
2023-03-18T11:14:22.077Z,96848.59
2023-03-18T11:16:59.099Z,96852.13
2023-03-18T11:19:32.746Z,96849.44
2023-03-18T11:22:19.323Z,96846.50
2023-03-18T11:24:46.512Z,96845.09
2023-03-18T11:27:18.642Z,96838.00
2023-03-18T11:30:00.251Z,96831.56
2023-03-18T11:32:29.686Z,96825.78
2023-03-18T11:35:01.794Z,96826.91
2023-03-18T11:37:32.865Z,96818.25
2023-03-18T11:40:20.550Z,96818.78
2023-03-18T11:42:48.878Z,96819.22
2023-03-18T11:45:31.894Z,96812.16
2023-03-18T11:47:58.968Z,96803.50
2023-03-18T11:50:37.092Z,96809.63
2023-03-18T11:53:09.279Z,96801.00
2023-03-18T11:55:45.013Z,96790.97
2023-03-18T11:58:32.547Z,96787.16
2023-03-18T12:01:21.110Z,96780.13
2023-03-18T12:04:04.220Z,96780.91
2023-03-18T12:06:33.083Z,96778.03
2023-03-18T12:09:17.977Z,96771.13
2023-03-18T12:12:08.342Z,96770.59
2023-03-18T12:14:59.673Z,96751.59
2023-03-18T12:17:56.728Z,96751.59
2023-03-18T12:20:51.520Z,96751.69
2023-03-18T12:23:49.743Z,96750.16
2023-03-18T12:26:45.947Z,96754.41
2023-03-18T12:29:25.920Z,96741.59
2023-03-18T12:32:19.389Z,96738.63
2023-03-18T12:35:00.229Z,96733.31
2023-03-18T12:37:48.140Z,96733.09
2023-03-18T12:40:29.473Z,96726.22
2023-03-18T12:43:17.911Z,96726.00
2023-03-18T12:45:50.974Z,96719.19
2023-03-18T12:48:43.178Z,96719.56
2023-03-18T12:51:16.451Z,96715.78
2023-03-18T12:53:49.129Z,96710.44
2023-03-18T12:56:30.205Z,96708.91
2023-03-18T12:59:16.565Z,96709.69
2023-03-18T13:01:45.374Z,96705.13
2023-03-18T13:04:18.287Z,96706.84
2023-03-18T13:07:03.566Z,96704.78
2023-03-18T13:09:59.542Z,96703.78
2023-03-18T13:12:37.109Z,96700.72
2023-03-18T13:15:25.800Z,96701.19
2023-03-18T13:17:56.737Z,96693.47
2023-03-18T13:20:26.944Z,96694.69
2023-03-18T13:23:03.543Z,96693.72
2023-03-18T13:25:35.873Z,96690.09
2023-03-18T13:28:08.707Z,96691.22
2023-03-18T13:30:44.750Z,96692.28
2023-03-18T13:33:46.022Z,96692.84
2023-03-18T13:36:31.163Z,96687.56
2023-03-18T13:39:08.516Z,96702.44
2023-03-18T13:41:45.141Z,96690.59
2023-03-18T13:44:22.372Z,96694.91
2023-03-18T13:46:58.985Z,96692.44
2023-03-18T13:49:29.698Z,96693.91
2023-03-18T13:52:04.443Z,96700.53
2023-03-18T13:54:41.377Z,96693.06
2023-03-18T13:57:18.722Z,96697.72
2023-03-18T13:59:48.522Z,96686.53
2023-03-18T14:02:30.138Z,96687.41
2023-03-18T14:04:58.461Z,96682.56
2023-03-18T14:07:25.641Z,96685.28
2023-03-18T14:10:19.266Z,96689.41
2023-03-18T14:12:50.233Z,96683.16
2023-03-18T14:15:37.832Z,96686.47
2023-03-18T14:18:17.551Z,96683.75
2023-03-18T14:20:44.423Z,96685.81
2023-03-18T14:23:29.896Z,96678.91
2023-03-18T14:26:28.670Z,96681.59
2023-03-18T14:29:07.173Z,96677.94
2023-03-18T14:31:52.068Z,96666.75
2023-03-18T14:34:18.859Z,96670.91
2023-03-18T14:37:05.816Z,96669.47
2023-03-18T14:39:47.889Z,96664.09
2023-03-18T14:42:36.097Z,96675.56
2023-03-18T14:45:17.965Z,96671.41
2023-03-18T14:47:49.196Z,96666.63
2023-03-18T14:50:30.922Z,96664.69
2023-03-18T14:53:17.359Z,96659.91
2023-03-18T14:55:45.046Z,96660.06
2023-03-18T14:58:17.406Z,96648.41
2023-03-18T15:00:46.306Z,96651.22
2023-03-18T15:03:24.875Z,96650.59
2023-03-18T15:05:58.886Z,96650.91
2023-03-18T15:08:46.356Z,96651.72
2023-03-18T15:11:14.990Z,96656.41
2023-03-18T15:13:42.329Z,96650.06
2023-03-18T15:16:14.735Z,96651.22
2023-03-18T15:18:41.384Z,96647.38
2023-03-18T15:21:13.322Z,96653.53
2023-03-18T15:23:45.617Z,96649.53
2023-03-18T15:26:19.053Z,96652.31
2023-03-18T15:28:53.128Z,96657.50
2023-03-18T15:31:38.961Z,96653.16
2023-03-18T15:34:20.140Z,96643.16
2023-03-18T15:36:53.320Z,96645.19
2023-03-18T15:39:39.126Z,96640.84
2023-03-18T15:42:19.974Z,96633.31
2023-03-18T15:44:56.227Z,96627.16
2023-03-18T15:47:28.054Z,96631.50
2023-03-18T15:50:00.422Z,96624.75
2023-03-18T15:52:36.675Z,96637.22
2023-03-18T15:55:06.768Z,96638.31
2023-03-18T15:57:38.106Z,96642.97
2023-03-18T16:00:10.974Z,96634.78
2023-03-18T16:02:38.325Z,96633.19
2023-03-18T16:05:19.402Z,96630.34
2023-03-18T16:07:46.806Z,96641.78
2023-03-18T16:10:18.535Z,96635.41
2023-03-18T16:12:48.113Z,96645.84
2023-03-18T16:15:22.033Z,96647.44
2023-03-18T16:17:49.517Z,96642.63
2023-03-18T16:20:21.410Z,96643.91
2023-03-18T16:22:47.957Z,96647.19
2023-03-18T16:25:14.533Z,96653.13
2023-03-18T16:27:43.444Z,96647.88
2023-03-18T16:30:23.289Z,96654.78
2023-03-18T16:32:51.236Z,96658.22
2023-03-18T16:35:20.632Z,96662.31
2023-03-18T16:37:49.099Z,96661.91
2023-03-18T16:40:25.072Z,96666.19
2023-03-18T16:42:52.657Z,96675.72
2023-03-18T16:45:33.579Z,96671.31
2023-03-18T16:48:07.046Z,96670.41
2023-03-18T16:50:36.491Z,96674.63
2023-03-18T16:53:03.675Z,96673.03
2023-03-18T16:55:30.341Z,96679.53
2023-03-18T16:57:59.514Z,96671.91
2023-03-18T17:00:31.686Z,96687.00
2023-03-18T17:03:01.870Z,96691.50
2023-03-18T17:05:29.141Z,96686.09
2023-03-18T17:07:55.957Z,96691.28
2023-03-18T17:10:26.082Z,96691.44
2023-03-18T17:12:57.482Z,96688.25
2023-03-18T17:15:28.478Z,96685.91
2023-03-18T17:17:58.114Z,96694.16
2023-03-18T17:20:27.305Z,96690.84
2023-03-18T17:22:54.503Z,96690.25
2023-03-18T17:25:21.936Z,96703.91
2023-03-18T17:27:57.295Z,96696.34
2023-03-18T17:30:36.548Z,96695.06
2023-03-18T17:33:04.462Z,96694.59
2023-03-18T17:35:32.187Z,96695.97
2023-03-18T17:37:59.183Z,96704.28
2023-03-18T17:40:29.004Z,96702.81
2023-03-18T17:42:55.595Z,96698.72
2023-03-18T17:45:28.441Z,96705.03
2023-03-18T17:48:12.947Z,96705.38
2023-03-18T17:50:41.082Z,96705.16
2023-03-18T17:53:37.328Z,96708.75
2023-03-18T17:56:06.177Z,96709.78
2023-03-18T17:58:34.192Z,96711.28
2023-03-18T18:01:05.752Z,96705.06
2023-03-18T18:03:34.946Z,96697.06
2023-03-18T18:06:02.177Z,96696.38
2023-03-18T18:08:29.776Z,96691.38
2023-03-18T18:11:21.244Z,96702.00
2023-03-18T18:13:49.045Z,96715.78
2023-03-18T18:16:15.846Z,96717.22
2023-03-18T18:18:42.643Z,96720.72
2023-03-18T18:21:15.891Z,96723.69
2023-03-18T18:23:44.842Z,96734.25
2023-03-18T18:26:14.601Z,96728.09
2023-03-18T18:28:44.784Z,96727.94
2023-03-18T18:31:12.583Z,96727.38
2023-03-18T18:33:41.927Z,96721.81
2023-03-18T18:36:09.454Z,96726.00
2023-03-18T18:38:36.091Z,96729.34
2023-03-18T18:41:02.712Z,96728.97
2023-03-18T18:43:29.386Z,96717.44
2023-03-18T18:45:57.643Z,96726.84
2023-03-18T18:48:33.334Z,96720.13
2023-03-18T18:51:01.965Z,96716.50
2023-03-18T18:53:37.541Z,96724.25
2023-03-18T18:56:23.573Z,96720.28
2023-03-18T18:58:52.059Z,96719.97
2023-03-18T19:01:19.146Z,96720.44
2023-03-18T19:03:46.818Z,96726.38
2023-03-18T19:06:32.809Z,96730.59
2023-03-18T19:09:01.686Z,96726.72
2023-03-18T19:11:29.033Z,96727.38
2023-03-18T19:14:33.204Z,96727.31
2023-03-18T19:16:59.974Z,96716.47
2023-03-18T19:19:29.514Z,96724.69
2023-03-18T19:21:57.483Z,96725.97
2023-03-18T19:24:32.675Z,96725.56
2023-03-18T19:27:03.010Z,96728.44
2023-03-18T19:29:30.551Z,96715.31
2023-03-18T19:31:57.177Z,96729.63
2023-03-18T19:34:24.433Z,96731.81
2023-03-18T19:36:53.664Z,96738.25
2023-03-18T19:39:22.400Z,96741.16
2023-03-18T19:41:49.277Z,96739.38
2023-03-18T19:44:25.544Z,96738.19
2023-03-18T19:46:54.746Z,96736.09
2023-03-18T19:49:33.747Z,96741.63
2023-03-18T19:52:01.783Z,96741.84
2023-03-18T19:54:28.447Z,96744.13
2023-03-18T19:56:57.255Z,96746.41
2023-03-18T19:59:25.307Z,96747.31
2023-03-18T20:01:51.844Z,96757.38
2023-03-18T20:04:19.920Z,96757.22
2023-03-18T20:06:50.593Z,96766.19
2023-03-18T20:09:19.854Z,96768.28
2023-03-18T20:11:49.828Z,96768.22
2023-03-18T20:14:29.756Z,96772.78
2023-03-18T20:16:58.895Z,96773.00
2023-03-18T20:19:25.411Z,96772.72
2023-03-18T20:21:52.288Z,96767.75
2023-03-18T20:24:27.596Z,96776.44
2023-03-18T20:26:54.223Z,96779.28
2023-03-18T20:29:23.913Z,96773.69
2023-03-18T20:31:50.442Z,96773.31
2023-03-18T20:34:16.943Z,96783.34
2023-03-18T20:36:43.507Z,96779.03
2023-03-18T20:39:21.244Z,96777.34
2023-03-18T20:41:48.204Z,96785.38
2023-03-18T20:44:14.768Z,96782.31
2023-03-18T20:46:42.883Z,96785.38
2023-03-18T20:49:09.583Z,96787.59
2023-03-18T20:51:40.823Z,96779.38
2023-03-18T20:54:19.001Z,96783.75
2023-03-18T20:56:46.852Z,96792.06
2023-03-18T20:59:13.822Z,96785.81
2023-03-18T21:01:41.060Z,96780.47
2023-03-18T21:04:11.759Z,96783.19
2023-03-18T21:06:38.928Z,96783.44
2023-03-18T21:09:07.106Z,96780.09
2023-03-18T21:11:33.770Z,96784.56
2023-03-18T21:14:00.426Z,96773.59
2023-03-18T21:16:27.799Z,96772.84
2023-03-18T21:18:54.333Z,96770.31
2023-03-18T21:21:25.692Z,96775.56
2023-03-18T21:23:53.933Z,96780.28
2023-03-18T21:26:21.732Z,96780.47
2023-03-18T21:28:49.980Z,96780.66
2023-03-18T21:31:24.610Z,96774.75
2023-03-18T21:33:52.205Z,96773.97
2023-03-18T21:36:19.203Z,96776.78
2023-03-18T21:38:45.988Z,96769.88
2023-03-18T21:41:29.046Z,96779.50
2023-03-18T21:43:56.073Z,96776.78
2023-03-18T21:46:27.116Z,96765.75
2023-03-18T21:48:54.204Z,96766.94
2023-03-18T21:51:38.701Z,96771.59
2023-03-18T21:54:06.492Z,96769.69
2023-03-18T21:56:33.046Z,96769.84
2023-03-18T21:58:59.624Z,96767.50
2023-03-18T22:01:32.090Z,96768.09
2023-03-18T22:03:59.079Z,96760.84
2023-03-18T22:06:25.652Z,96756.88
2023-03-18T22:08:52.154Z,96762.09
2023-03-18T22:11:22.076Z,96773.91
2023-03-18T22:13:49.816Z,96770.53
2023-03-18T22:16:17.907Z,96778.28
2023-03-18T22:18:47.383Z,96776.47
2023-03-18T22:21:23.184Z,96787.06
2023-03-18T22:23:50.600Z,96784.72
2023-03-18T22:26:18.607Z,96772.22
2023-03-18T22:28:45.898Z,96781.00
2023-03-18T22:31:24.436Z,96775.69
2023-03-18T22:33:51.613Z,96774.94
2023-03-18T22:36:19.628Z,96775.00
2023-03-18T22:38:46.331Z,96774.41
2023-03-18T22:41:30.301Z,96778.03
2023-03-18T22:43:59.993Z,96774.69
2023-03-18T22:46:28.328Z,96776.53
2023-03-18T22:48:55.007Z,96771.56
2023-03-18T22:51:23.629Z,96770.78
2023-03-18T22:53:52.794Z,96768.50
2023-03-18T22:56:21.236Z,96771.47
2023-03-18T22:58:47.815Z,96779.38
2023-03-18T23:01:16.835Z,96776.91
2023-03-18T23:03:44.767Z,96773.69
2023-03-18T23:06:17.277Z,96777.56
2023-03-18T23:08:45.531Z,96784.53
2023-03-18T23:11:19.669Z,96783.94
2023-03-18T23:13:50.110Z,96779.81
2023-03-18T23:16:20.730Z,96780.75
2023-03-18T23:18:48.087Z,96783.34
2023-03-18T23:21:20.753Z,96780.88
2023-03-18T23:23:47.560Z,96786.38
2023-03-18T23:26:16.277Z,96779.53
2023-03-18T23:28:45.227Z,96784.88
2023-03-18T23:31:13.569Z,96786.84
2023-03-18T23:33:40.264Z,96780.31
2023-03-18T23:36:07.526Z,96780.47
2023-03-18T23:38:34.284Z,96783.19
2023-03-18T23:41:00.876Z,96790.06
2023-03-18T23:43:27.467Z,96785.63
2023-03-18T23:45:54.074Z,96786.44
2023-03-18T23:48:20.764Z,96791.75
2023-03-18T23:50:47.312Z,96795.13
2023-03-18T23:53:13.861Z,96791.84
2023-03-18T23:55:40.347Z,96792.75
2023-03-18T23:58:06.876Z,96796.34
